sensor_id;sensor_type;location;lat;lon;timestamp;P1;durP1;ratioP1;P2;durP2;ratioP2
15946;SDS011;8072;52.554;7.966;2023-03-01T00:00:21;32.17;;;14.63;;
15946;SDS011;8072;52.554;7.966;2023-03-01T00:02:46;27.20;;;13.27;;
15946;SDS011;8072;52.554;7.966;2023-03-01T00:05:12;30.03;;;13.50;;
15946;SDS011;8072;52.554;7.966;2023-03-01T00:07:38;25.50;;;12.40;;
15946;SDS011;8072;52.554;7.966;2023-03-01T00:10:03;22.63;;;12.03;;
15946;SDS011;8072;52.554;7.966;2023-03-01T00:12:30;20.20;;;10.33;;
15946;SDS011;8072;52.554;7.966;2023-03-01T00:14:56;14.53;;;9.80;;
15946;SDS011;8072;52.554;7.966;2023-03-01T00:17:22;16.70;;;9.23;;
15946;SDS011;8072;52.554;7.966;2023-03-01T00:19:48;14.77;;;9.30;;
15946;SDS011;8072;52.554;7.966;2023-03-01T00:22:13;13.97;;;8.77;;
15946;SDS011;8072;52.554;7.966;2023-03-01T00:24:39;13.80;;;8.57;;
15946;SDS011;8072;52.554;7.966;2023-03-01T00:27:05;14.40;;;8.57;;
15946;SDS011;8072;52.554;7.966;2023-03-01T00:29:31;11.50;;;7.60;;
15946;SDS011;8072;52.554;7.966;2023-03-01T00:31:56;13.70;;;7.53;;
15946;SDS011;8072;52.554;7.966;2023-03-01T00:34:22;14.30;;;8.50;;
15946;SDS011;8072;52.554;7.966;2023-03-01T00:36:48;16.07;;;9.10;;
15946;SDS011;8072;52.554;7.966;2023-03-01T00:39:14;13.17;;;8.00;;
15946;SDS011;8072;52.554;7.966;2023-03-01T00:41:40;10.53;;;7.30;;
15946;SDS011;8072;52.554;7.966;2023-03-01T00:44:06;14.43;;;7.30;;
15946;SDS011;8072;52.554;7.966;2023-03-01T00:46:32;9.37;;;8.00;;
15946;SDS011;8072;52.554;7.966;2023-03-01T00:48:58;10.13;;;7.03;;
15946;SDS011;8072;52.554;7.966;2023-03-01T00:51:27;9.47;;;7.57;;
15946;SDS011;8072;52.554;7.966;2023-03-01T00:53:54;11.07;;;7.73;;
15946;SDS011;8072;52.554;7.966;2023-03-01T00:56:21;10.03;;;7.27;;
15946;SDS011;8072;52.554;7.966;2023-03-01T00:58:47;10.97;;;7.90;;
15946;SDS011;8072;52.554;7.966;2023-03-01T01:01:14;9.00;;;7.67;;
15946;SDS011;8072;52.554;7.966;2023-03-01T01:03:43;15.87;;;7.63;;
15946;SDS011;8072;52.554;7.966;2023-03-01T01:06:14;11.70;;;7.40;;
15946;SDS011;8072;52.554;7.966;2023-03-01T01:08:43;9.10;;;7.17;;
15946;SDS011;8072;52.554;7.966;2023-03-01T01:11:10;10.17;;;7.20;;
15946;SDS011;8072;52.554;7.966;2023-03-01T01:13:37;9.37;;;7.37;;
15946;SDS011;8072;52.554;7.966;2023-03-01T01:16:03;12.47;;;7.63;;
15946;SDS011;8072;52.554;7.966;2023-03-01T01:18:29;11.97;;;7.30;;
15946;SDS011;8072;52.554;7.966;2023-03-01T01:20:55;11.97;;;7.17;;
15946;SDS011;8072;52.554;7.966;2023-03-01T01:23:20;11.47;;;7.23;;
15946;SDS011;8072;52.554;7.966;2023-03-01T01:25:46;13.53;;;7.63;;
15946;SDS011;8072;52.554;7.966;2023-03-01T01:28:12;10.23;;;6.47;;
15946;SDS011;8072;52.554;7.966;2023-03-01T01:30:38;10.20;;;6.40;;
15946;SDS011;8072;52.554;7.966;2023-03-01T01:33:04;10.10;;;7.20;;
15946;SDS011;8072;52.554;7.966;2023-03-01T01:35:29;10.10;;;7.30;;
15946;SDS011;8072;52.554;7.966;2023-03-01T01:37:55;11.87;;;7.50;;
15946;SDS011;8072;52.554;7.966;2023-03-01T01:40:21;9.47;;;7.67;;
15946;SDS011;8072;52.554;7.966;2023-03-01T01:42:46;9.07;;;7.27;;
15946;SDS011;8072;52.554;7.966;2023-03-01T01:47:58;12.00;;;7.63;;
15946;SDS011;8072;52.554;7.966;2023-03-01T01:50:38;10.17;;;7.07;;
15946;SDS011;8072;52.554;7.966;2023-03-01T01:53:09;11.27;;;8.03;;
15946;SDS011;8072;52.554;7.966;2023-03-01T01:55:47;9.57;;;7.23;;
15946;SDS011;8072;52.554;7.966;2023-03-01T01:58:17;10.93;;;6.93;;
15946;SDS011;8072;52.554;7.966;2023-03-01T02:00:46;11.20;;;7.67;;
15946;SDS011;8072;52.554;7.966;2023-03-01T02:03:14;11.57;;;7.23;;
15946;SDS011;8072;52.554;7.966;2023-03-01T02:08:46;12.20;;;7.60;;
15946;SDS011;8072;52.554;7.966;2023-03-01T02:11:14;11.17;;;7.43;;
15946;SDS011;8072;52.554;7.966;2023-03-01T02:13:40;12.13;;;7.47;;
15946;SDS011;8072;52.554;7.966;2023-03-01T02:16:11;13.00;;;7.53;;
15946;SDS011;8072;52.554;7.966;2023-03-01T02:18:40;11.80;;;7.20;;
15946;SDS011;8072;52.554;7.966;2023-03-01T02:21:54;11.83;;;7.93;;
15946;SDS011;8072;52.554;7.966;2023-03-01T02:24:32;10.67;;;7.57;;
15946;SDS011;8072;52.554;7.966;2023-03-01T02:27:03;12.00;;;7.63;;
15946;SDS011;8072;52.554;7.966;2023-03-01T02:29:29;11.03;;;7.10;;
15946;SDS011;8072;52.554;7.966;2023-03-01T02:31:56;12.07;;;7.83;;
15946;SDS011;8072;52.554;7.966;2023-03-01T02:34:24;10.93;;;7.77;;
15946;SDS011;8072;52.554;7.966;2023-03-01T02:39:44;10.80;;;6.80;;
15946;SDS011;8072;52.554;7.966;2023-03-01T02:42:14;10.47;;;6.63;;
15946;SDS011;8072;52.554;7.966;2023-03-01T02:44:46;10.13;;;7.10;;
15946;SDS011;8072;52.554;7.966;2023-03-01T02:47:13;9.60;;;7.43;;
15946;SDS011;8072;52.554;7.966;2023-03-01T02:49:39;12.13;;;7.40;;
15946;SDS011;8072;52.554;7.966;2023-03-01T02:54:36;10.63;;;7.10;;
15946;SDS011;8072;52.554;7.966;2023-03-01T02:57:15;12.73;;;7.33;;
15946;SDS011;8072;52.554;7.966;2023-03-01T02:59:42;11.50;;;7.47;;
15946;SDS011;8072;52.554;7.966;2023-03-01T03:02:18;11.63;;;7.50;;
15946;SDS011;8072;52.554;7.966;2023-03-01T03:05:05;11.73;;;7.47;;
15946;SDS011;8072;52.554;7.966;2023-03-01T03:07:33;10.70;;;7.10;;
15946;SDS011;8072;52.554;7.966;2023-03-01T03:10:02;11.00;;;6.60;;
15946;SDS011;8072;52.554;7.966;2023-03-01T03:12:29;8.80;;;7.00;;
15946;SDS011;8072;52.554;7.966;2023-03-01T03:14:55;10.07;;;7.20;;
15946;SDS011;8072;52.554;7.966;2023-03-01T03:17:20;10.53;;;6.53;;
15946;SDS011;8072;52.554;7.966;2023-03-01T03:19:46;8.40;;;6.73;;
15946;SDS011;8072;52.554;7.966;2023-03-01T03:22:12;10.27;;;7.53;;
15946;SDS011;8072;52.554;7.966;2023-03-01T03:24:38;9.97;;;7.47;;
15946;SDS011;8072;52.554;7.966;2023-03-01T03:27:05;9.60;;;7.37;;
15946;SDS011;8072;52.554;7.966;2023-03-01T03:29:31;11.47;;;7.77;;
15946;SDS011;8072;52.554;7.966;2023-03-01T03:31:57;10.10;;;7.30;;
15946;SDS011;8072;52.554;7.966;2023-03-01T03:34:24;10.13;;;6.63;;
15946;SDS011;8072;52.554;7.966;2023-03-01T03:36:53;11.03;;;7.20;;
15946;SDS011;8072;52.554;7.966;2023-03-01T03:39:24;12.73;;;7.67;;
15946;SDS011;8072;52.554;7.966;2023-03-01T03:41:52;11.63;;;7.70;;
15946;SDS011;8072;52.554;7.966;2023-03-01T03:44:19;10.87;;;6.83;;
15946;SDS011;8072;52.554;7.966;2023-03-01T03:46:46;12.40;;;7.53;;
15946;SDS011;8072;52.554;7.966;2023-03-01T03:49:12;11.27;;;7.23;;
15946;SDS011;8072;52.554;7.966;2023-03-01T03:51:38;11.07;;;7.43;;
15946;SDS011;8072;52.554;7.966;2023-03-01T03:54:03;14.37;;;7.83;;
15946;SDS011;8072;52.554;7.966;2023-03-01T03:56:29;8.80;;;6.70;;
15946;SDS011;8072;52.554;7.966;2023-03-01T03:58:55;13.77;;;7.07;;
15946;SDS011;8072;52.554;7.966;2023-03-01T04:01:21;9.50;;;6.90;;
15946;SDS011;8072;52.554;7.966;2023-03-01T04:03:47;9.63;;;6.90;;
15946;SDS011;8072;52.554;7.966;2023-03-01T04:06:13;13.33;;;6.97;;
15946;SDS011;8072;52.554;7.966;2023-03-01T04:08:39;8.93;;;6.90;;
15946;SDS011;8072;52.554;7.966;2023-03-01T04:11:06;10.50;;;6.80;;
15946;SDS011;8072;52.554;7.966;2023-03-01T04:13:50;10.60;;;7.63;;
15946;SDS011;8072;52.554;7.966;2023-03-01T04:16:17;9.63;;;6.80;;
15946;SDS011;8072;52.554;7.966;2023-03-01T04:18:44;10.97;;;7.83;;
15946;SDS011;8072;52.554;7.966;2023-03-01T04:21:10;10.73;;;7.57;;
15946;SDS011;8072;52.554;7.966;2023-03-01T04:23:36;8.70;;;6.57;;
15946;SDS011;8072;52.554;7.966;2023-03-01T04:26:02;10.00;;;7.60;;
15946;SDS011;8072;52.554;7.966;2023-03-01T04:28:32;10.73;;;6.80;;
15946;SDS011;8072;52.554;7.966;2023-03-01T04:31:07;9.17;;;6.80;;
15946;SDS011;8072;52.554;7.966;2023-03-01T04:33:41;10.17;;;7.43;;
15946;SDS011;8072;52.554;7.966;2023-03-01T04:36:09;15.93;;;8.27;;
15946;SDS011;8072;52.554;7.966;2023-03-01T04:38:36;16.07;;;8.87;;
15946;SDS011;8072;52.554;7.966;2023-03-01T04:41:06;11.03;;;7.07;;
15946;SDS011;8072;52.554;7.966;2023-03-01T04:43:34;11.93;;;7.13;;
15946;SDS011;8072;52.554;7.966;2023-03-01T04:46:03;10.00;;;6.80;;
15946;SDS011;8072;52.554;7.966;2023-03-01T04:48:32;10.60;;;6.97;;
15946;SDS011;8072;52.554;7.966;2023-03-01T04:50:58;10.73;;;7.23;;
15946;SDS011;8072;52.554;7.966;2023-03-01T04:53:25;12.63;;;6.80;;
15946;SDS011;8072;52.554;7.966;2023-03-01T04:55:51;12.70;;;7.70;;
15946;SDS011;8072;52.554;7.966;2023-03-01T04:58:18;10.20;;;7.37;;
15946;SDS011;8072;52.554;7.966;2023-03-01T05:00:44;11.80;;;6.87;;
15946;SDS011;8072;52.554;7.966;2023-03-01T05:03:10;13.40;;;7.30;;
15946;SDS011;8072;52.554;7.966;2023-03-01T05:05:36;12.53;;;8.60;;
15946;SDS011;8072;52.554;7.966;2023-03-01T05:08:04;13.10;;;7.70;;
15946;SDS011;8072;52.554;7.966;2023-03-01T05:10:33;10.10;;;7.53;;
15946;SDS011;8072;52.554;7.966;2023-03-01T05:13:01;12.60;;;8.20;;
15946;SDS011;8072;52.554;7.966;2023-03-01T05:15:28;10.83;;;7.47;;
15946;SDS011;8072;52.554;7.966;2023-03-01T05:17:55;13.57;;;7.73;;
15946;SDS011;8072;52.554;7.966;2023-03-01T05:20:24;9.77;;;7.07;;
15946;SDS011;8072;52.554;7.966;2023-03-01T05:22:58;10.90;;;7.70;;
15946;SDS011;8072;52.554;7.966;2023-03-01T05:25:25;11.50;;;6.90;;
15946;SDS011;8072;52.554;7.966;2023-03-01T05:27:51;15.20;;;7.27;;
15946;SDS011;8072;52.554;7.966;2023-03-01T05:30:17;9.97;;;7.20;;
15946;SDS011;8072;52.554;7.966;2023-03-01T05:32:44;11.53;;;7.47;;
15946;SDS011;8072;52.554;7.966;2023-03-01T05:35:15;10.53;;;7.07;;
15946;SDS011;8072;52.554;7.966;2023-03-01T05:37:45;10.43;;;7.67;;
15946;SDS011;8072;52.554;7.966;2023-03-01T05:40:14;9.80;;;7.23;;
15946;SDS011;8072;52.554;7.966;2023-03-01T05:42:43;10.87;;;7.33;;
15946;SDS011;8072;52.554;7.966;2023-03-01T05:45:11;13.77;;;8.40;;
15946;SDS011;8072;52.554;7.966;2023-03-01T05:47:38;10.83;;;7.70;;
15946;SDS011;8072;52.554;7.966;2023-03-01T05:50:09;15.57;;;8.10;;
15946;SDS011;8072;52.554;7.966;2023-03-01T05:52:43;9.70;;;6.83;;
15946;SDS011;8072;52.554;7.966;2023-03-01T05:55:10;12.70;;;7.53;;
15946;SDS011;8072;52.554;7.966;2023-03-01T05:57:35;10.53;;;6.90;;
15946;SDS011;8072;52.554;7.966;2023-03-01T06:00:01;10.53;;;7.57;;
15946;SDS011;8072;52.554;7.966;2023-03-01T06:02:28;10.43;;;7.33;;
15946;SDS011;8072;52.554;7.966;2023-03-01T06:04:54;10.67;;;7.27;;
15946;SDS011;8072;52.554;7.966;2023-03-01T06:07:20;10.47;;;6.83;;
15946;SDS011;8072;52.554;7.966;2023-03-01T06:09:46;9.47;;;6.73;;
15946;SDS011;8072;52.554;7.966;2023-03-01T06:12:12;11.33;;;7.93;;
15946;SDS011;8072;52.554;7.966;2023-03-01T06:14:38;10.00;;;7.10;;
15946;SDS011;8072;52.554;7.966;2023-03-01T06:17:04;13.40;;;7.73;;
15946;SDS011;8072;52.554;7.966;2023-03-01T06:19:29;10.13;;;7.03;;
15946;SDS011;8072;52.554;7.966;2023-03-01T06:21:55;10.67;;;7.27;;
15946;SDS011;8072;52.554;7.966;2023-03-01T06:24:21;9.43;;;7.07;;
15946;SDS011;8072;52.554;7.966;2023-03-01T06:26:46;10.70;;;7.50;;
15946;SDS011;8072;52.554;7.966;2023-03-01T06:29:12;10.33;;;7.00;;
15946;SDS011;8072;52.554;7.966;2023-03-01T06:31:39;11.13;;;6.67;;
15946;SDS011;8072;52.554;7.966;2023-03-01T06:34:05;11.37;;;6.90;;
15946;SDS011;8072;52.554;7.966;2023-03-01T06:36:31;10.83;;;7.47;;
15946;SDS011;8072;52.554;7.966;2023-03-01T06:38:56;8.50;;;7.40;;
15946;SDS011;8072;52.554;7.966;2023-03-01T06:41:22;7.97;;;6.43;;
15946;SDS011;8072;52.554;7.966;2023-03-01T06:43:48;11.80;;;7.97;;
15946;SDS011;8072;52.554;7.966;2023-03-01T06:46:13;10.03;;;6.50;;
15946;SDS011;8072;52.554;7.966;2023-03-01T06:48:39;9.57;;;7.43;;
15946;SDS011;8072;52.554;7.966;2023-03-01T06:51:05;7.17;;;6.00;;
15946;SDS011;8072;52.554;7.966;2023-03-01T06:53:31;10.97;;;7.60;;
15946;SDS011;8072;52.554;7.966;2023-03-01T06:55:57;9.83;;;6.63;;
15946;SDS011;8072;52.554;7.966;2023-03-01T06:58:25;10.27;;;7.20;;
15946;SDS011;8072;52.554;7.966;2023-03-01T07:00:51;11.20;;;7.23;;
15946;SDS011;8072;52.554;7.966;2023-03-01T07:03:16;9.87;;;6.73;;
15946;SDS011;8072;52.554;7.966;2023-03-01T07:05:42;10.97;;;7.50;;
15946;SDS011;8072;52.554;7.966;2023-03-01T07:08:09;14.70;;;8.07;;
15946;SDS011;8072;52.554;7.966;2023-03-01T07:10:35;12.43;;;6.93;;
15946;SDS011;8072;52.554;7.966;2023-03-01T07:13:01;11.33;;;6.90;;
15946;SDS011;8072;52.554;7.966;2023-03-01T07:15:27;10.07;;;6.90;;
15946;SDS011;8072;52.554;7.966;2023-03-01T07:17:53;12.20;;;7.23;;
15946;SDS011;8072;52.554;7.966;2023-03-01T07:20:19;10.00;;;7.13;;
15946;SDS011;8072;52.554;7.966;2023-03-01T07:22:50;15.13;;;8.00;;
15946;SDS011;8072;52.554;7.966;2023-03-01T07:25:17;13.40;;;8.03;;
15946;SDS011;8072;52.554;7.966;2023-03-01T07:27:43;15.10;;;8.57;;
15946;SDS011;8072;52.554;7.966;2023-03-01T07:30:09;16.10;;;8.53;;
15946;SDS011;8072;52.554;7.966;2023-03-01T07:32:35;11.00;;;7.60;;
15946;SDS011;8072;52.554;7.966;2023-03-01T07:35:01;14.73;;;9.13;;
15946;SDS011;8072;52.554;7.966;2023-03-01T07:37:27;12.80;;;8.77;;
15946;SDS011;8072;52.554;7.966;2023-03-01T07:39:52;15.27;;;9.23;;
15946;SDS011;8072;52.554;7.966;2023-03-01T07:42:18;13.67;;;9.37;;
15946;SDS011;8072;52.554;7.966;2023-03-01T07:44:44;15.70;;;9.70;;
15946;SDS011;8072;52.554;7.966;2023-03-01T07:47:09;12.47;;;9.03;;
15946;SDS011;8072;52.554;7.966;2023-03-01T07:49:35;14.13;;;9.33;;
15946;SDS011;8072;52.554;7.966;2023-03-01T07:52:01;16.17;;;9.90;;
15946;SDS011;8072;52.554;7.966;2023-03-01T07:54:27;13.90;;;9.10;;
15946;SDS011;8072;52.554;7.966;2023-03-01T07:56:52;16.47;;;9.53;;
15946;SDS011;8072;52.554;7.966;2023-03-01T07:59:19;15.70;;;9.77;;
15946;SDS011;8072;52.554;7.966;2023-03-01T08:01:45;15.70;;;9.63;;
15946;SDS011;8072;52.554;7.966;2023-03-01T08:04:11;15.97;;;11.27;;
15946;SDS011;8072;52.554;7.966;2023-03-01T08:06:37;13.53;;;9.47;;
15946;SDS011;8072;52.554;7.966;2023-03-01T08:09:03;14.40;;;10.60;;
15946;SDS011;8072;52.554;7.966;2023-03-01T08:11:28;15.80;;;10.93;;
15946;SDS011;8072;52.554;7.966;2023-03-01T08:13:54;18.77;;;10.27;;
15946;SDS011;8072;52.554;7.966;2023-03-01T08:16:20;17.20;;;10.63;;
15946;SDS011;8072;52.554;7.966;2023-03-01T08:18:45;18.90;;;11.00;;
15946;SDS011;8072;52.554;7.966;2023-03-01T08:21:12;15.53;;;10.57;;
15946;SDS011;8072;52.554;7.966;2023-03-01T08:23:42;14.90;;;9.33;;
15946;SDS011;8072;52.554;7.966;2023-03-01T08:26:13;14.07;;;10.00;;
15946;SDS011;8072;52.554;7.966;2023-03-01T08:28:42;15.23;;;10.07;;
15946;SDS011;8072;52.554;7.966;2023-03-01T08:31:15;18.37;;;11.53;;
15946;SDS011;8072;52.554;7.966;2023-03-01T08:34:09;17.13;;;10.53;;
15946;SDS011;8072;52.554;7.966;2023-03-01T08:36:38;14.43;;;9.67;;
15946;SDS011;8072;52.554;7.966;2023-03-01T08:39:06;14.40;;;10.03;;
15946;SDS011;8072;52.554;7.966;2023-03-01T08:41:32;15.77;;;10.10;;
15946;SDS011;8072;52.554;7.966;2023-03-01T08:43:58;18.63;;;9.80;;
15946;SDS011;8072;52.554;7.966;2023-03-01T08:46:28;12.80;;;8.73;;
15946;SDS011;8072;52.554;7.966;2023-03-01T08:48:56;16.77;;;9.93;;
15946;SDS011;8072;52.554;7.966;2023-03-01T08:51:22;11.00;;;8.67;;
15946;SDS011;8072;52.554;7.966;2023-03-01T08:53:49;11.67;;;7.93;;
15946;SDS011;8072;52.554;7.966;2023-03-01T08:56:15;11.73;;;8.30;;
15946;SDS011;8072;52.554;7.966;2023-03-01T08:58:44;13.27;;;8.60;;
15946;SDS011;8072;52.554;7.966;2023-03-01T09:01:11;10.90;;;7.83;;
15946;SDS011;8072;52.554;7.966;2023-03-01T09:03:38;11.80;;;7.67;;
15946;SDS011;8072;52.554;7.966;2023-03-01T09:06:05;12.03;;;7.67;;
15946;SDS011;8072;52.554;7.966;2023-03-01T09:08:36;16.97;;;8.53;;
15946;SDS011;8072;52.554;7.966;2023-03-01T09:11:03;12.03;;;7.87;;
15946;SDS011;8072;52.554;7.966;2023-03-01T09:13:33;10.70;;;7.50;;
15946;SDS011;8072;52.554;7.966;2023-03-01T09:16:00;11.40;;;7.63;;
15946;SDS011;8072;52.554;7.966;2023-03-01T09:18:28;9.27;;;6.10;;
15946;SDS011;8072;52.554;7.966;2023-03-01T09:21:00;9.60;;;6.40;;
15946;SDS011;8072;52.554;7.966;2023-03-01T09:23:38;10.37;;;6.43;;
15946;SDS011;8072;52.554;7.966;2023-03-01T09:26:07;10.00;;;7.33;;
15946;SDS011;8072;52.554;7.966;2023-03-01T09:28:54;12.60;;;6.90;;
15946;SDS011;8072;52.554;7.966;2023-03-01T09:31:21;11.27;;;6.57;;
15946;SDS011;8072;52.554;7.966;2023-03-01T09:33:48;8.43;;;6.67;;
15946;SDS011;8072;52.554;7.966;2023-03-01T09:36:16;11.50;;;7.70;;
15946;SDS011;8072;52.554;7.966;2023-03-01T09:38:43;11.07;;;6.83;;
15946;SDS011;8072;52.554;7.966;2023-03-01T09:41:22;9.57;;;6.53;;
15946;SDS011;8072;52.554;7.966;2023-03-01T09:44:11;7.57;;;5.90;;
15946;SDS011;8072;52.554;7.966;2023-03-01T09:46:48;11.03;;;6.60;;
15946;SDS011;8072;52.554;7.966;2023-03-01T09:49:15;9.77;;;6.50;;
15946;SDS011;8072;52.554;7.966;2023-03-01T09:54:34;9.43;;;5.93;;
15946;SDS011;8072;52.554;7.966;2023-03-01T09:59:47;12.13;;;6.23;;
15946;SDS011;8072;52.554;7.966;2023-03-01T10:02:26;9.10;;;5.27;;
15946;SDS011;8072;52.554;7.966;2023-03-01T10:11:00;7.60;;;5.30;;
15946;SDS011;8072;52.554;7.966;2023-03-01T10:13:33;7.70;;;5.50;;
15946;SDS011;8072;52.554;7.966;2023-03-01T10:19:22;9.23;;;5.00;;
15946;SDS011;8072;52.554;7.966;2023-03-01T10:21:52;6.57;;;4.93;;
15946;SDS011;8072;52.554;7.966;2023-03-01T10:24:19;8.40;;;4.97;;
15946;SDS011;8072;52.554;7.966;2023-03-01T10:26:56;5.97;;;4.60;;
15946;SDS011;8072;52.554;7.966;2023-03-01T10:29:31;8.43;;;4.40;;
15946;SDS011;8072;52.554;7.966;2023-03-01T10:32:05;7.17;;;3.87;;
15946;SDS011;8072;52.554;7.966;2023-03-01T10:34:37;6.73;;;4.23;;
15946;SDS011;8072;52.554;7.966;2023-03-01T10:39:36;8.23;;;4.00;;
15946;SDS011;8072;52.554;7.966;2023-03-01T10:42:03;6.07;;;3.67;;
15946;SDS011;8072;52.554;7.966;2023-03-01T10:44:46;5.23;;;3.40;;
15946;SDS011;8072;52.554;7.966;2023-03-01T10:47:14;6.70;;;3.87;;
15946;SDS011;8072;52.554;7.966;2023-03-01T10:50:02;5.00;;;3.50;;
15946;SDS011;8072;52.554;7.966;2023-03-01T10:52:34;6.27;;;3.60;;
15946;SDS011;8072;52.554;7.966;2023-03-01T10:55:22;9.50;;;6.83;;
15946;SDS011;8072;52.554;7.966;2023-03-01T10:57:49;5.93;;;3.70;;
15946;SDS011;8072;52.554;7.966;2023-03-01T11:00:20;6.33;;;3.30;;
15946;SDS011;8072;52.554;7.966;2023-03-01T11:03:11;6.87;;;4.33;;
15946;SDS011;8072;52.554;7.966;2023-03-01T11:05:37;4.03;;;3.27;;
15946;SDS011;8072;52.554;7.966;2023-03-01T11:14:00;4.63;;;3.10;;
15946;SDS011;8072;52.554;7.966;2023-03-01T11:24:11;5.40;;;3.70;;
15946;SDS011;8072;52.554;7.966;2023-03-01T11:26:40;5.37;;;4.10;;
15946;SDS011;8072;52.554;7.966;2023-03-01T11:29:15;6.40;;;4.03;;
15946;SDS011;8072;52.554;7.966;2023-03-01T11:31:50;6.17;;;4.60;;
15946;SDS011;8072;52.554;7.966;2023-03-01T11:34:20;5.37;;;3.87;;
15946;SDS011;8072;52.554;7.966;2023-03-01T11:36:59;7.57;;;4.87;;
15946;SDS011;8072;52.554;7.966;2023-03-01T11:39:32;5.47;;;3.97;;
15946;SDS011;8072;52.554;7.966;2023-03-01T11:42:25;8.90;;;4.10;;
15946;SDS011;8072;52.554;7.966;2023-03-01T11:45:09;6.77;;;4.20;;
15946;SDS011;8072;52.554;7.966;2023-03-01T11:50:39;5.00;;;3.67;;
15946;SDS011;8072;52.554;7.966;2023-03-01T11:53:14;6.93;;;3.87;;
15946;SDS011;8072;52.554;7.966;2023-03-01T12:07:06;4.53;;;3.50;;
15946;SDS011;8072;52.554;7.966;2023-03-01T12:09:49;4.10;;;3.23;;
15946;SDS011;8072;52.554;7.966;2023-03-01T12:12:30;5.97;;;3.67;;
15946;SDS011;8072;52.554;7.966;2023-03-01T12:18:30;5.23;;;3.50;;
15946;SDS011;8072;52.554;7.966;2023-03-01T12:23:43;5.40;;;3.50;;
15946;SDS011;8072;52.554;7.966;2023-03-01T12:26:33;5.50;;;3.87;;
15946;SDS011;8072;52.554;7.966;2023-03-01T12:51:01;5.47;;;3.30;;
15946;SDS011;8072;52.554;7.966;2023-03-01T12:53:32;6.37;;;3.70;;
15946;SDS011;8072;52.554;7.966;2023-03-01T12:56:11;7.47;;;4.57;;
15946;SDS011;8072;52.554;7.966;2023-03-01T13:06:54;6.80;;;3.53;;
15946;SDS011;8072;52.554;7.966;2023-03-01T13:09:35;5.40;;;3.30;;
15946;SDS011;8072;52.554;7.966;2023-03-01T13:12:41;5.30;;;3.17;;
15946;SDS011;8072;52.554;7.966;2023-03-01T13:20:29;5.70;;;3.70;;
15946;SDS011;8072;52.554;7.966;2023-03-01T13:23:12;7.17;;;3.10;;
15946;SDS011;8072;52.554;7.966;2023-03-01T13:31:07;7.47;;;3.93;;
15946;SDS011;8072;52.554;7.966;2023-03-01T13:33:46;7.40;;;4.40;;
15946;SDS011;8072;52.554;7.966;2023-03-01T13:44:48;7.53;;;3.83;;
15946;SDS011;8072;52.554;7.966;2023-03-01T13:47:03;6.17;;;3.73;;
15946;SDS011;8072;52.554;7.966;2023-03-01T13:49:53;6.10;;;4.23;;
15946;SDS011;8072;52.554;7.966;2023-03-01T13:57:41;5.67;;;3.63;;
15946;SDS011;8072;52.554;7.966;2023-03-01T14:03:08;5.53;;;3.50;;
15946;SDS011;8072;52.554;7.966;2023-03-01T14:05:43;6.43;;;4.13;;
15946;SDS011;8072;52.554;7.966;2023-03-01T14:08:24;6.03;;;3.77;;
15946;SDS011;8072;52.554;7.966;2023-03-01T14:13:36;7.23;;;4.17;;
15946;SDS011;8072;52.554;7.966;2023-03-01T14:24:55;6.40;;;3.90;;
15946;SDS011;8072;52.554;7.966;2023-03-01T14:27:38;8.43;;;4.40;;
15946;SDS011;8072;52.554;7.966;2023-03-01T14:33:03;5.57;;;4.20;;
15946;SDS011;8072;52.554;7.966;2023-03-01T14:35:35;5.77;;;4.03;;
15946;SDS011;8072;52.554;7.966;2023-03-01T14:38:01;7.43;;;3.63;;
15946;SDS011;8072;52.554;7.966;2023-03-01T14:40:35;9.53;;;4.00;;
15946;SDS011;8072;52.554;7.966;2023-03-01T14:43:07;7.73;;;4.23;;
15946;SDS011;8072;52.554;7.966;2023-03-01T14:45:35;7.23;;;4.13;;
15946;SDS011;8072;52.554;7.966;2023-03-01T14:48:02;6.53;;;4.13;;
15946;SDS011;8072;52.554;7.966;2023-03-01T14:50:31;5.37;;;3.83;;
15946;SDS011;8072;52.554;7.966;2023-03-01T14:53:01;5.77;;;3.50;;
15946;SDS011;8072;52.554;7.966;2023-03-01T14:55:30;9.80;;;4.20;;
15946;SDS011;8072;52.554;7.966;2023-03-01T14:57:59;4.77;;;3.50;;
15946;SDS011;8072;52.554;7.966;2023-03-01T15:00:29;6.13;;;4.00;;
15946;SDS011;8072;52.554;7.966;2023-03-01T15:02:57;7.40;;;4.20;;
15946;SDS011;8072;52.554;7.966;2023-03-01T15:05:32;7.60;;;4.07;;
15946;SDS011;8072;52.554;7.966;2023-03-01T15:07:59;8.73;;;4.30;;
15946;SDS011;8072;52.554;7.966;2023-03-01T15:10:28;7.23;;;4.13;;
15946;SDS011;8072;52.554;7.966;2023-03-01T15:12:56;6.17;;;4.00;;
15946;SDS011;8072;52.554;7.966;2023-03-01T15:15:37;9.17;;;4.87;;
15946;SDS011;8072;52.554;7.966;2023-03-01T15:18:42;8.40;;;4.70;;
15946;SDS011;8072;52.554;7.966;2023-03-01T15:21:31;8.03;;;4.60;;
15946;SDS011;8072;52.554;7.966;2023-03-01T15:24:00;7.73;;;4.40;;
15946;SDS011;8072;52.554;7.966;2023-03-01T15:26:44;6.43;;;4.13;;
15946;SDS011;8072;52.554;7.966;2023-03-01T15:29:33;6.93;;;4.03;;
15946;SDS011;8072;52.554;7.966;2023-03-01T15:34:55;7.57;;;4.10;;
15946;SDS011;8072;52.554;7.966;2023-03-01T15:37:48;6.77;;;4.50;;
15946;SDS011;8072;52.554;7.966;2023-03-01T15:42:43;6.90;;;4.80;;
15946;SDS011;8072;52.554;7.966;2023-03-01T15:47:43;7.13;;;4.33;;
15946;SDS011;8072;52.554;7.966;2023-03-01T15:50:19;5.83;;;4.00;;
15946;SDS011;8072;52.554;7.966;2023-03-01T15:52:47;6.00;;;4.10;;
15946;SDS011;8072;52.554;7.966;2023-03-01T15:55:24;6.23;;;4.27;;
15946;SDS011;8072;52.554;7.966;2023-03-01T15:57:59;7.47;;;4.50;;
15946;SDS011;8072;52.554;7.966;2023-03-01T16:00:31;7.63;;;4.30;;
15946;SDS011;8072;52.554;7.966;2023-03-01T16:02:57;10.23;;;4.97;;
15946;SDS011;8072;52.554;7.966;2023-03-01T16:05:25;11.13;;;6.40;;
15946;SDS011;8072;52.554;7.966;2023-03-01T16:07:52;9.63;;;5.87;;
15946;SDS011;8072;52.554;7.966;2023-03-01T16:10:19;10.50;;;5.43;;
15946;SDS011;8072;52.554;7.966;2023-03-01T16:12:45;8.73;;;5.30;;
15946;SDS011;8072;52.554;7.966;2023-03-01T16:15:17;7.27;;;4.80;;
15946;SDS011;8072;52.554;7.966;2023-03-01T16:17:45;8.03;;;4.80;;
15946;SDS011;8072;52.554;7.966;2023-03-01T16:20:11;10.10;;;6.73;;
15946;SDS011;8072;52.554;7.966;2023-03-01T16:22:37;15.57;;;7.97;;
15946;SDS011;8072;52.554;7.966;2023-03-01T16:25:03;14.83;;;8.13;;
15946;SDS011;8072;52.554;7.966;2023-03-01T16:27:29;13.37;;;7.50;;
15946;SDS011;8072;52.554;7.966;2023-03-01T16:29:55;12.80;;;7.50;;
15946;SDS011;8072;52.554;7.966;2023-03-01T16:32:20;8.27;;;5.33;;
15946;SDS011;8072;52.554;7.966;2023-03-01T16:34:46;8.20;;;5.20;;
15946;SDS011;8072;52.554;7.966;2023-03-01T16:37:14;8.37;;;5.33;;
15946;SDS011;8072;52.554;7.966;2023-03-01T16:39:41;9.77;;;6.17;;
15946;SDS011;8072;52.554;7.966;2023-03-01T16:42:06;12.13;;;7.10;;
15946;SDS011;8072;52.554;7.966;2023-03-01T16:44:32;11.93;;;7.13;;
15946;SDS011;8072;52.554;7.966;2023-03-01T16:46:59;9.30;;;6.13;;
15946;SDS011;8072;52.554;7.966;2023-03-01T16:49:25;10.93;;;6.23;;
15946;SDS011;8072;52.554;7.966;2023-03-01T16:51:53;9.13;;;5.43;;
15946;SDS011;8072;52.554;7.966;2023-03-01T16:54:19;10.80;;;6.17;;
15946;SDS011;8072;52.554;7.966;2023-03-01T16:56:44;10.03;;;6.43;;
15946;SDS011;8072;52.554;7.966;2023-03-01T16:59:10;10.97;;;7.20;;
15946;SDS011;8072;52.554;7.966;2023-03-01T17:01:36;13.00;;;7.60;;
15946;SDS011;8072;52.554;7.966;2023-03-01T17:04:05;12.07;;;7.70;;
15946;SDS011;8072;52.554;7.966;2023-03-01T17:06:32;12.27;;;7.20;;
15946;SDS011;8072;52.554;7.966;2023-03-01T17:08:58;11.73;;;7.40;;
15946;SDS011;8072;52.554;7.966;2023-03-01T17:11:24;14.67;;;8.63;;
15946;SDS011;8072;52.554;7.966;2023-03-01T17:13:50;15.30;;;8.50;;
15946;SDS011;8072;52.554;7.966;2023-03-01T17:16:18;15.00;;;7.93;;
15946;SDS011;8072;52.554;7.966;2023-03-01T17:18:44;13.73;;;7.43;;
15946;SDS011;8072;52.554;7.966;2023-03-01T17:21:13;14.53;;;7.50;;
15946;SDS011;8072;52.554;7.966;2023-03-01T17:23:40;10.07;;;7.10;;
15946;SDS011;8072;52.554;7.966;2023-03-01T17:26:07;11.83;;;7.77;;
15946;SDS011;8072;52.554;7.966;2023-03-01T17:28:34;11.93;;;6.67;;